sensor_id;sensor_type;location;lat;lon;timestamp;P1;P2;P0
47741;PMS5003;33504;52.066;6.096;2023-07-20T00:01:33;9;9;
47741;PMS5003;33504;52.066;6.096;2023-07-20T00:04:00;9;9;
47741;PMS5003;33504;52.066;6.096;2023-07-20T00:06:27;15;14;
47741;PMS5003;33504;52.066;6.096;2023-07-20T00:08:53;11;10;
47741;PMS5003;33504;52.066;6.096;2023-07-20T00:11:21;12;11;
47741;PMS5003;33504;52.066;6.096;2023-07-20T00:13:52;9;9;
47741;PMS5003;33504;52.066;6.096;2023-07-20T00:16:19;9;9;
47741;PMS5003;33504;52.066;6.096;2023-07-20T00:18:46;11;9;
47741;PMS5003;33504;52.066;6.096;2023-07-20T00:21:13;8;8;
47741;PMS5003;33504;52.066;6.096;2023-07-20T00:23:39;8;8;
47741;PMS5003;33504;52.066;6.096;2023-07-20T00:26:06;10;10;
47741;PMS5003;33504;52.066;6.096;2023-07-20T00:28:33;10;9;
47741;PMS5003;33504;52.066;6.096;2023-07-20T00:30:59;12;10;
47741;PMS5003;33504;52.066;6.096;2023-07-20T00:33:26;10;9;
47741;PMS5003;33504;52.066;6.096;2023-07-20T00:35:53;8;7;
47741;PMS5003;33504;52.066;6.096;2023-07-20T00:38:20;8;8;
47741;PMS5003;33504;52.066;6.096;2023-07-20T00:40:48;8;8;
47741;PMS5003;33504;52.066;6.096;2023-07-20T00:43:14;12;12;
47741;PMS5003;33504;52.066;6.096;2023-07-20T00:45:42;9;9;
47741;PMS5003;33504;52.066;6.096;2023-07-20T00:48:10;12;12;
47741;PMS5003;33504;52.066;6.096;2023-07-20T00:50:38;11;10;
47741;PMS5003;33504;52.066;6.096;2023-07-20T00:53:07;11;10;
47741;PMS5003;33504;52.066;6.096;2023-07-20T00:55:35;11;10;
47741;PMS5003;33504;52.066;6.096;2023-07-20T00:58:02;11;10;
47741;PMS5003;33504;52.066;6.096;2023-07-20T01:00:30;10;10;
47741;PMS5003;33504;52.066;6.096;2023-07-20T01:02:57;12;11;
47741;PMS5003;33504;52.066;6.096;2023-07-20T01:05:26;11;11;
47741;PMS5003;33504;52.066;6.096;2023-07-20T01:08:00;9;9;
47741;PMS5003;33504;52.066;6.096;2023-07-20T01:10:36;10;10;
47741;PMS5003;33504;52.066;6.096;2023-07-20T01:13:06;10;9;
47741;PMS5003;33504;52.066;6.096;2023-07-20T01:15:36;8;7;
47741;PMS5003;33504;52.066;6.096;2023-07-20T01:18:03;6;6;
47741;PMS5003;33504;52.066;6.096;2023-07-20T01:20:30;9;9;
47741;PMS5003;33504;52.066;6.096;2023-07-20T01:23:45;9;8;
47741;PMS5003;33504;52.066;6.096;2023-07-20T01:26:46;7;6;
47741;PMS5003;33504;52.066;6.096;2023-07-20T01:29:32;6;6;
47741;PMS5003;33504;52.066;6.096;2023-07-20T01:32:24;9;8;
47741;PMS5003;33504;52.066;6.096;2023-07-20T01:34:52;7;7;
47741;PMS5003;33504;52.066;6.096;2023-07-20T01:37:21;7;7;
47741;PMS5003;33504;52.066;6.096;2023-07-20T01:39:49;7;7;
47741;PMS5003;33504;52.066;6.096;2023-07-20T01:42:16;5;5;
47741;PMS5003;33504;52.066;6.096;2023-07-20T01:44:44;6;6;
47741;PMS5003;33504;52.066;6.096;2023-07-20T01:47:10;7;7;
47741;PMS5003;33504;52.066;6.096;2023-07-20T01:49:37;10;10;
47741;PMS5003;33504;52.066;6.096;2023-07-20T01:52:04;9;9;
47741;PMS5003;33504;52.066;6.096;2023-07-20T01:54:32;7;7;
47741;PMS5003;33504;52.066;6.096;2023-07-20T01:56:59;6;6;
47741;PMS5003;33504;52.066;6.096;2023-07-20T01:59:26;7;6;
47741;PMS5003;33504;52.066;6.096;2023-07-20T02:01:52;4;4;
47741;PMS5003;33504;52.066;6.096;2023-07-20T02:04:19;6;6;
47741;PMS5003;33504;52.066;6.096;2023-07-20T02:06:46;7;7;
47741;PMS5003;33504;52.066;6.096;2023-07-20T02:09:12;6;6;
47741;PMS5003;33504;52.066;6.096;2023-07-20T02:11:39;7;7;
47741;PMS5003;33504;52.066;6.096;2023-07-20T02:14:06;5;5;
47741;PMS5003;33504;52.066;6.096;2023-07-20T02:16:32;6;6;
47741;PMS5003;33504;52.066;6.096;2023-07-20T02:18:59;5;5;
47741;PMS5003;33504;52.066;6.096;2023-07-20T02:21:26;6;6;
47741;PMS5003;33504;52.066;6.096;2023-07-20T02:23:53;5;5;
47741;PMS5003;33504;52.066;6.096;2023-07-20T02:26:19;5;5;
47741;PMS5003;33504;52.066;6.096;2023-07-20T02:28:46;5;5;
47741;PMS5003;33504;52.066;6.096;2023-07-20T02:31:13;7;7;
47741;PMS5003;33504;52.066;6.096;2023-07-20T02:33:41;4;4;
47741;PMS5003;33504;52.066;6.096;2023-07-20T02:36:08;5;5;
47741;PMS5003;33504;52.066;6.096;2023-07-20T02:38:34;5;5;
47741;PMS5003;33504;52.066;6.096;2023-07-20T02:41:01;6;6;
47741;PMS5003;33504;52.066;6.096;2023-07-20T02:43:27;4;4;
47741;PMS5003;33504;52.066;6.096;2023-07-20T02:45:54;6;6;
47741;PMS5003;33504;52.066;6.096;2023-07-20T02:48:21;5;5;
47741;PMS5003;33504;52.066;6.096;2023-07-20T02:50:47;6;5;
47741;PMS5003;33504;52.066;6.096;2023-07-20T02:53:14;4;4;
47741;PMS5003;33504;52.066;6.096;2023-07-20T02:55:41;5;5;
47741;PMS5003;33504;52.066;6.096;2023-07-20T02:58:07;5;5;
47741;PMS5003;33504;52.066;6.096;2023-07-20T03:00:34;5;4;
47741;PMS5003;33504;52.066;6.096;2023-07-20T03:03:01;3;3;
47741;PMS5003;33504;52.066;6.096;2023-07-20T03:05:27;5;5;
47741;PMS5003;33504;52.066;6.096;2023-07-20T03:07:54;4;4;
47741;PMS5003;33504;52.066;6.096;2023-07-20T03:10:22;5;5;
47741;PMS5003;33504;52.066;6.096;2023-07-20T03:12:48;5;4;
47741;PMS5003;33504;52.066;6.096;2023-07-20T03:15:15;4;4;
47741;PMS5003;33504;52.066;6.096;2023-07-20T03:17:42;4;4;
47741;PMS5003;33504;52.066;6.096;2023-07-20T03:20:09;3;3;
47741;PMS5003;33504;52.066;6.096;2023-07-20T03:22:37;4;3;
47741;PMS5003;33504;52.066;6.096;2023-07-20T03:25:05;5;5;
47741;PMS5003;33504;52.066;6.096;2023-07-20T03:27:32;5;5;
47741;PMS5003;33504;52.066;6.096;2023-07-20T03:29:59;3;3;
47741;PMS5003;33504;52.066;6.096;2023-07-20T03:32:26;4;4;
47741;PMS5003;33504;52.066;6.096;2023-07-20T03:34:53;4;4;
47741;PMS5003;33504;52.066;6.096;2023-07-20T03:37:20;4;4;
47741;PMS5003;33504;52.066;6.096;2023-07-20T03:39:47;4;4;
47741;PMS5003;33504;52.066;6.096;2023-07-20T03:42:13;4;4;
47741;PMS5003;33504;52.066;6.096;2023-07-20T03:44:40;5;5;
47741;PMS5003;33504;52.066;6.096;2023-07-20T03:47:07;4;4;
47741;PMS5003;33504;52.066;6.096;2023-07-20T03:49:33;5;5;
47741;PMS5003;33504;52.066;6.096;2023-07-20T03:52:00;5;5;
47741;PMS5003;33504;52.066;6.096;2023-07-20T03:54:28;4;4;
47741;PMS5003;33504;52.066;6.096;2023-07-20T03:56:54;4;4;
47741;PMS5003;33504;52.066;6.096;2023-07-20T03:59:21;5;5;
47741;PMS5003;33504;52.066;6.096;2023-07-20T04:01:48;4;4;
47741;PMS5003;33504;52.066;6.096;2023-07-20T04:04:15;7;5;
47741;PMS5003;33504;52.066;6.096;2023-07-20T04:06:43;5;5;
47741;PMS5003;33504;52.066;6.096;2023-07-20T04:09:10;6;6;
47741;PMS5003;33504;52.066;6.096;2023-07-20T04:11:38;4;4;
47741;PMS5003;33504;52.066;6.096;2023-07-20T04:14:05;5;4;
47741;PMS5003;33504;52.066;6.096;2023-07-20T04:16:32;4;4;
47741;PMS5003;33504;52.066;6.096;2023-07-20T04:18:59;5;5;
47741;PMS5003;33504;52.066;6.096;2023-07-20T04:21:27;6;6;
47741;PMS5003;33504;52.066;6.096;2023-07-20T04:23:54;2;2;
47741;PMS5003;33504;52.066;6.096;2023-07-20T04:26:21;5;5;
47741;PMS5003;33504;52.066;6.096;2023-07-20T04:28:47;5;5;
47741;PMS5003;33504;52.066;6.096;2023-07-20T04:31:14;5;5;
47741;PMS5003;33504;52.066;6.096;2023-07-20T04:33:42;5;5;
47741;PMS5003;33504;52.066;6.096;2023-07-20T04:36:08;5;5;
47741;PMS5003;33504;52.066;6.096;2023-07-20T04:38:35;5;5;
47741;PMS5003;33504;52.066;6.096;2023-07-20T04:41:02;4;4;
47741;PMS5003;33504;52.066;6.096;2023-07-20T04:43:29;5;5;
47741;PMS5003;33504;52.066;6.096;2023-07-20T04:45:56;6;6;
47741;PMS5003;33504;52.066;6.096;2023-07-20T04:48:23;5;5;
47741;PMS5003;33504;52.066;6.096;2023-07-20T04:50:51;6;6;
47741;PMS5003;33504;52.066;6.096;2023-07-20T04:53:18;4;4;
47741;PMS5003;33504;52.066;6.096;2023-07-20T04:55:48;5;5;
47741;PMS5003;33504;52.066;6.096;2023-07-20T04:58:16;4;4;
47741;PMS5003;33504;52.066;6.096;2023-07-20T05:00:43;4;4;
47741;PMS5003;33504;52.066;6.096;2023-07-20T05:03:10;6;6;
47741;PMS5003;33504;52.066;6.096;2023-07-20T05:05:37;4;4;
47741;PMS5003;33504;52.066;6.096;2023-07-20T05:08:04;4;4;
47741;PMS5003;33504;52.066;6.096;2023-07-20T05:10:31;4;4;
47741;PMS5003;33504;52.066;6.096;2023-07-20T05:12:59;5;5;
47741;PMS5003;33504;52.066;6.096;2023-07-20T05:15:26;4;4;
47741;PMS5003;33504;52.066;6.096;2023-07-20T05:17:52;5;5;
47741;PMS5003;33504;52.066;6.096;2023-07-20T05:20:19;3;3;
47741;PMS5003;33504;52.066;6.096;2023-07-20T05:22:47;5;5;
47741;PMS5003;33504;52.066;6.096;2023-07-20T05:25:15;4;4;
47741;PMS5003;33504;52.066;6.096;2023-07-20T05:27:42;4;4;
47741;PMS5003;33504;52.066;6.096;2023-07-20T05:30:08;4;4;
47741;PMS5003;33504;52.066;6.096;2023-07-20T05:32:36;5;5;
47741;PMS5003;33504;52.066;6.096;2023-07-20T05:35:03;5;5;
47741;PMS5003;33504;52.066;6.096;2023-07-20T05:37:30;3;3;
47741;PMS5003;33504;52.066;6.096;2023-07-20T05:39:57;4;4;
47741;PMS5003;33504;52.066;6.096;2023-07-20T05:42:24;3;3;
47741;PMS5003;33504;52.066;6.096;2023-07-20T05:44:51;5;5;
47741;PMS5003;33504;52.066;6.096;2023-07-20T05:47:17;3;3;
47741;PMS5003;33504;52.066;6.096;2023-07-20T05:49:44;3;3;
47741;PMS5003;33504;52.066;6.096;2023-07-20T05:52:12;4;4;
47741;PMS5003;33504;52.066;6.096;2023-07-20T05:54:39;3;3;
47741;PMS5003;33504;52.066;6.096;2023-07-20T05:57:06;2;2;
47741;PMS5003;33504;52.066;6.096;2023-07-20T05:59:33;3;3;
47741;PMS5003;33504;52.066;6.096;2023-07-20T06:02:01;3;3;
47741;PMS5003;33504;52.066;6.096;2023-07-20T06:04:27;2;2;
47741;PMS5003;33504;52.066;6.096;2023-07-20T06:06:54;3;3;
47741;PMS5003;33504;52.066;6.096;2023-07-20T06:09:21;2;2;
47741;PMS5003;33504;52.066;6.096;2023-07-20T06:11:47;3;3;
47741;PMS5003;33504;52.066;6.096;2023-07-20T06:14:14;3;3;
47741;PMS5003;33504;52.066;6.096;2023-07-20T06:16:41;4;3;
47741;PMS5003;33504;52.066;6.096;2023-07-20T06:19:07;2;2;
47741;PMS5003;33504;52.066;6.096;2023-07-20T06:21:34;2;2;
47741;PMS5003;33504;52.066;6.096;2023-07-20T06:24:01;3;3;
47741;PMS5003;33504;52.066;6.096;2023-07-20T06:26:27;3;3;
47741;PMS5003;33504;52.066;6.096;2023-07-20T06:28:55;3;3;
47741;PMS5003;33504;52.066;6.096;2023-07-20T06:31:21;3;3;
47741;PMS5003;33504;52.066;6.096;2023-07-20T06:33:49;2;2;
47741;PMS5003;33504;52.066;6.096;2023-07-20T06:36:17;3;3;
47741;PMS5003;33504;52.066;6.096;2023-07-20T06:38:44;3;3;
47741;PMS5003;33504;52.066;6.096;2023-07-20T06:41:11;3;3;
47741;PMS5003;33504;52.066;6.096;2023-07-20T06:43:37;2;1;
47741;PMS5003;33504;52.066;6.096;2023-07-20T06:46:04;2;2;
47741;PMS5003;33504;52.066;6.096;2023-07-20T06:48:30;4;3;
47741;PMS5003;33504;52.066;6.096;2023-07-20T06:50:57;2;2;
47741;PMS5003;33504;52.066;6.096;2023-07-20T06:53:24;2;2;
47741;PMS5003;33504;52.066;6.096;2023-07-20T06:55:51;3;3;
47741;PMS5003;33504;52.066;6.096;2023-07-20T06:58:19;4;3;
47741;PMS5003;33504;52.066;6.096;2023-07-20T07:00:46;3;3;
47741;PMS5003;33504;52.066;6.096;2023-07-20T07:03:14;2;2;
47741;PMS5003;33504;52.066;6.096;2023-07-20T07:05:41;2;2;
47741;PMS5003;33504;52.066;6.096;2023-07-20T07:08:09;2;2;
47741;PMS5003;33504;52.066;6.096;2023-07-20T07:10:35;2;2;
47741;PMS5003;33504;52.066;6.096;2023-07-20T07:13:03;31;31;
47741;PMS5003;33504;52.066;6.096;2023-07-20T07:15:30;14;14;
47741;PMS5003;33504;52.066;6.096;2023-07-20T07:17:57;4;4;
47741;PMS5003;33504;52.066;6.096;2023-07-20T07:20:24;7;7;
47741;PMS5003;33504;52.066;6.096;2023-07-20T07:22:51;2;2;
47741;PMS5003;33504;52.066;6.096;2023-07-20T07:25:19;2;2;
47741;PMS5003;33504;52.066;6.096;2023-07-20T07:27:45;2;2;
47741;PMS5003;33504;52.066;6.096;2023-07-20T07:30:12;1;1;
47741;PMS5003;33504;52.066;6.096;2023-07-20T07:32:39;3;2;
47741;PMS5003;33504;52.066;6.096;2023-07-20T07:35:06;3;3;
47741;PMS5003;33504;52.066;6.096;2023-07-20T07:37:33;3;3;
47741;PMS5003;33504;52.066;6.096;2023-07-20T07:40:00;2;2;
47741;PMS5003;33504;52.066;6.096;2023-07-20T07:42:28;2;2;
47741;PMS5003;33504;52.066;6.096;2023-07-20T07:44:56;2;2;
47741;PMS5003;33504;52.066;6.096;2023-07-20T07:47:23;3;3;
47741;PMS5003;33504;52.066;6.096;2023-07-20T07:49:50;2;2;
47741;PMS5003;33504;52.066;6.096;2023-07-20T07:52:16;3;3;
47741;PMS5003;33504;52.066;6.096;2023-07-20T07:54:44;2;2;
47741;PMS5003;33504;52.066;6.096;2023-07-20T07:57:11;1;1;
47741;PMS5003;33504;52.066;6.096;2023-07-20T07:59:38;2;2;
47741;PMS5003;33504;52.066;6.096;2023-07-20T08:02:06;2;2;
47741;PMS5003;33504;52.066;6.096;2023-07-20T08:04:33;2;2;
47741;PMS5003;33504;52.066;6.096;2023-07-20T08:07:03;2;1;
47741;PMS5003;33504;52.066;6.096;2023-07-20T08:09:30;3;2;
47741;PMS5003;33504;52.066;6.096;2023-07-20T08:11:58;2;2;
47741;PMS5003;33504;52.066;6.096;2023-07-20T08:14:25;2;2;
47741;PMS5003;33504;52.066;6.096;2023-07-20T08:16:53;2;1;
47741;PMS5003;33504;52.066;6.096;2023-07-20T08:19:20;4;4;
47741;PMS5003;33504;52.066;6.096;2023-07-20T08:21:47;3;3;
47741;PMS5003;33504;52.066;6.096;2023-07-20T08:24:15;4;3;
47741;PMS5003;33504;52.066;6.096;2023-07-20T08:26:42;3;2;
47741;PMS5003;33504;52.066;6.096;2023-07-20T08:29:10;2;2;
47741;PMS5003;33504;52.066;6.096;2023-07-20T08:31:37;0;0;
47741;PMS5003;33504;52.066;6.096;2023-07-20T08:34:04;1;1;
47741;PMS5003;33504;52.066;6.096;2023-07-20T08:36:32;1;1;
47741;PMS5003;33504;52.066;6.096;2023-07-20T08:38:59;2;2;
47741;PMS5003;33504;52.066;6.096;2023-07-20T08:41:27;1;1;
47741;PMS5003;33504;52.066;6.096;2023-07-20T08:43:54;2;2;
47741;PMS5003;33504;52.066;6.096;2023-07-20T08:46:23;2;2;
47741;PMS5003;33504;52.066;6.096;2023-07-20T08:48:52;3;3;
47741;PMS5003;33504;52.066;6.096;2023-07-20T08:51:20;6;6;
47741;PMS5003;33504;52.066;6.096;2023-07-20T08:53:47;6;6;
47741;PMS5003;33504;52.066;6.096;2023-07-20T08:56:17;3;3;
47741;PMS5003;33504;52.066;6.096;2023-07-20T08:58:46;2;2;
47741;PMS5003;33504;52.066;6.096;2023-07-20T09:01:14;1;1;
47741;PMS5003;33504;52.066;6.096;2023-07-20T09:03:41;2;2;
47741;PMS5003;33504;52.066;6.096;2023-07-20T09:06:11;3;3;
47741;PMS5003;33504;52.066;6.096;2023-07-20T09:08:38;1;1;
47741;PMS5003;33504;52.066;6.096;2023-07-20T09:11:06;2;2;
47741;PMS5003;33504;52.066;6.096;2023-07-20T09:13:33;2;2;
47741;PMS5003;33504;52.066;6.096;2023-07-20T09:16:00;6;6;
47741;PMS5003;33504;52.066;6.096;2023-07-20T09:18:29;2;2;
47741;PMS5003;33504;52.066;6.096;2023-07-20T09:20:58;2;1;
47741;PMS5003;33504;52.066;6.096;2023-07-20T09:23:29;1;0;
47741;PMS5003;33504;52.066;6.096;2023-07-20T09:25:57;1;1;
47741;PMS5003;33504;52.066;6.096;2023-07-20T09:28:24;1;1;
47741;PMS5003;33504;52.066;6.096;2023-07-20T09:30:52;1;1;
47741;PMS5003;33504;52.066;6.096;2023-07-20T09:33:21;1;1;
47741;PMS5003;33504;52.066;6.096;2023-07-20T09:35:48;2;2;
47741;PMS5003;33504;52.066;6.096;2023-07-20T09:38:16;2;2;
47741;PMS5003;33504;52.066;6.096;2023-07-20T09:40:43;0;0;
47741;PMS5003;33504;52.066;6.096;2023-07-20T09:43:11;1;1;
47741;PMS5003;33504;52.066;6.096;2023-07-20T09:45:39;3;2;
47741;PMS5003;33504;52.066;6.096;2023-07-20T09:48:08;2;2;
47741;PMS5003;33504;52.066;6.096;2023-07-20T09:50:39;2;2;
47741;PMS5003;33504;52.066;6.096;2023-07-20T09:53:06;0;0;
47741;PMS5003;33504;52.066;6.096;2023-07-20T09:55:33;2;2;
47741;PMS5003;33504;52.066;6.096;2023-07-20T09:58:01;1;1;
47741;PMS5003;33504;52.066;6.096;2023-07-20T10:00:29;0;0;
47741;PMS5003;33504;52.066;6.096;2023-07-20T10:02:56;1;1;
47741;PMS5003;33504;52.066;6.096;2023-07-20T10:05:26;2;2;
47741;PMS5003;33504;52.066;6.096;2023-07-20T10:07:58;2;2;
47741;PMS5003;33504;52.066;6.096;2023-07-20T10:10:27;1;1;
47741;PMS5003;33504;52.066;6.096;2023-07-20T10:12:56;2;2;
47741;PMS5003;33504;52.066;6.096;2023-07-20T10:15:27;0;0;
47741;PMS5003;33504;52.066;6.096;2023-07-20T10:18:02;1;1;
47741;PMS5003;33504;52.066;6.096;2023-07-20T10:20:32;1;1;
47741;PMS5003;33504;52.066;6.096;2023-07-20T10:23:01;2;2;
47741;PMS5003;33504;52.066;6.096;2023-07-20T10:25:30;2;2;
47741;PMS5003;33504;52.066;6.096;2023-07-20T10:27:57;2;2;
47741;PMS5003;33504;52.066;6.096;2023-07-20T10:30:24;2;2;
47741;PMS5003;33504;52.066;6.096;2023-07-20T10:32:53;2;1;
47741;PMS5003;33504;52.066;6.096;2023-07-20T10:35:20;3;3;
47741;PMS5003;33504;52.066;6.096;2023-07-20T10:37:48;3;3;
47741;PMS5003;33504;52.066;6.096;2023-07-20T10:40:25;3;3;
47741;PMS5003;33504;52.066;6.096;2023-07-20T10:43:02;3;3;
47741;PMS5003;33504;52.066;6.096;2023-07-20T10:45:33;2;2;
47741;PMS5003;33504;52.066;6.096;2023-07-20T10:48:04;15;14;
47741;PMS5003;33504;52.066;6.096;2023-07-20T10:50:32;2;2;
47741;PMS5003;33504;52.066;6.096;2023-07-20T10:53:10;2;2;
47741;PMS5003;33504;52.066;6.096;2023-07-20T10:55:38;5;5;
47741;PMS5003;33504;52.066;6.096;2023-07-20T10:58:06;6;6;
47741;PMS5003;33504;52.066;6.096;2023-07-20T11:00:34;7;7;
47741;PMS5003;33504;52.066;6.096;2023-07-20T11:03:02;8;8;
47741;PMS5003;33504;52.066;6.096;2023-07-20T11:05:32;8;8;
47741;PMS5003;33504;52.066;6.096;2023-07-20T11:08:02;10;10;
47741;PMS5003;33504;52.066;6.096;2023-07-20T11:10:30;8;8;
47741;PMS5003;33504;52.066;6.096;2023-07-20T11:13:30;4;4;
47741;PMS5003;33504;52.066;6.096;2023-07-20T11:16:04;9;9;
47741;PMS5003;33504;52.066;6.096;2023-07-20T11:18:33;11;11;
47741;PMS5003;33504;52.066;6.096;2023-07-20T11:21:01;7;7;
47741;PMS5003;33504;52.066;6.096;2023-07-20T11:23:28;6;6;
47741;PMS5003;33504;52.066;6.096;2023-07-20T11:25:57;3;3;
47741;PMS5003;33504;52.066;6.096;2023-07-20T11:28:25;2;2;
47741;PMS5003;33504;52.066;6.096;2023-07-20T11:30:52;2;2;
47741;PMS5003;33504;52.066;6.096;2023-07-20T11:33:19;2;2;
47741;PMS5003;33504;52.066;6.096;2023-07-20T11:35:48;2;2;
47741;PMS5003;33504;52.066;6.096;2023-07-20T11:38:16;1;1;
47741;PMS5003;33504;52.066;6.096;2023-07-20T11:40:43;0;0;
47741;PMS5003;33504;52.066;6.096;2023-07-20T11:43:11;1;1;
47741;PMS5003;33504;52.066;6.096;2023-07-20T11:45:39;1;1;
47741;PMS5003;33504;52.066;6.096;2023-07-20T11:48:06;1;1;
47741;PMS5003;33504;52.066;6.096;2023-07-20T11:50:40;1;0;
47741;PMS5003;33504;52.066;6.096;2023-07-20T11:53:07;2;2;
47741;PMS5003;33504;52.066;6.096;2023-07-20T11:55:34;2;2;
47741;PMS5003;33504;52.066;6.096;2023-07-20T11:58:02;3;2;
47741;PMS5003;33504;52.066;6.096;2023-07-20T12:00:30;3;3;
47741;PMS5003;33504;52.066;6.096;2023-07-20T12:02:57;2;2;
47741;PMS5003;33504;52.066;6.096;2023-07-20T12:05:25;1;1;
47741;PMS5003;33504;52.066;6.096;2023-07-20T12:07:52;2;2;
47741;PMS5003;33504;52.066;6.096;2023-07-20T12:10:24;2;1;
47741;PMS5003;33504;52.066;6.096;2023-07-20T12:12:52;2;2;
47741;PMS5003;33504;52.066;6.096;2023-07-20T12:15:21;3;3;
47741;PMS5003;33504;52.066;6.096;2023-07-20T12:17:50;3;3;
47741;PMS5003;33504;52.066;6.096;2023-07-20T12:20:27;2;2;
47741;PMS5003;33504;52.066;6.096;2023-07-20T12:22:56;1;1;
47741;PMS5003;33504;52.066;6.096;2023-07-20T12:25:32;1;1;
47741;PMS5003;33504;52.066;6.096;2023-07-20T12:28:00;1;1;
47741;PMS5003;33504;52.066;6.096;2023-07-20T12:30:28;1;1;
47741;PMS5003;33504;52.066;6.096;2023-07-20T12:32:55;0;0;
47741;PMS5003;33504;52.066;6.096;2023-07-20T12:35:23;1;1;
47741;PMS5003;33504;52.066;6.096;2023-07-20T12:37:50;2;2;
47741;PMS5003;33504;52.066;6.096;2023-07-20T12:40:18;2;2;
47741;PMS5003;33504;52.066;6.096;2023-07-20T12:42:45;2;2;
47741;PMS5003;33504;52.066;6.096;2023-07-20T12:45:12;2;2;
47741;PMS5003;33504;52.066;6.096;2023-07-20T12:47:40;2;2;
47741;PMS5003;33504;52.066;6.096;2023-07-20T12:50:07;2;2;
47741;PMS5003;33504;52.066;6.096;2023-07-20T12:52:35;2;2;
47741;PMS5003;33504;52.066;6.096;2023-07-20T12:55:04;2;2;
47741;PMS5003;33504;52.066;6.096;2023-07-20T12:57:32;3;3;
47741;PMS5003;33504;52.066;6.096;2023-07-20T12:59:59;2;2;
47741;PMS5003;33504;52.066;6.096;2023-07-20T13:02:27;2;2;
47741;PMS5003;33504;52.066;6.096;2023-07-20T13:04:54;1;1;
47741;PMS5003;33504;52.066;6.096;2023-07-20T13:07:28;2;2;
47741;PMS5003;33504;52.066;6.096;2023-07-20T13:09:57;2;2;
47741;PMS5003;33504;52.066;6.096;2023-07-20T13:12:24;2;2;
47741;PMS5003;33504;52.066;6.096;2023-07-20T13:14:51;2;2;
47741;PMS5003;33504;52.066;6.096;2023-07-20T13:17:19;1;1;
47741;PMS5003;33504;52.066;6.096;2023-07-20T13:19:46;2;2;
47741;PMS5003;33504;52.066;6.096;2023-07-20T13:22:14;1;1;
47741;PMS5003;33504;52.066;6.096;2023-07-20T13:24:41;2;2;
47741;PMS5003;33504;52.066;6.096;2023-07-20T13:27:08;2;2;
47741;PMS5003;33504;52.066;6.096;2023-07-20T13:29:36;2;2;
47741;PMS5003;33504;52.066;6.096;2023-07-20T13:32:03;2;2;
47741;PMS5003;33504;52.066;6.096;2023-07-20T13:34:31;2;2;
47741;PMS5003;33504;52.066;6.096;2023-07-20T13:36:59;5;5;
47741;PMS5003;33504;52.066;6.096;2023-07-20T13:39:27;3;3;
47741;PMS5003;33504;52.066;6.096;2023-07-20T13:41:54;3;3;
47741;PMS5003;33504;52.066;6.096;2023-07-20T13:44:21;2;2;
47741;PMS5003;33504;52.066;6.096;2023-07-20T13:46:49;1;1;
47741;PMS5003;33504;52.066;6.096;2023-07-20T13:49:16;2;2;
47741;PMS5003;33504;52.066;6.096;2023-07-20T13:51:44;2;2;
47741;PMS5003;33504;52.066;6.096;2023-07-20T13:54:11;2;2;
47741;PMS5003;33504;52.066;6.096;2023-07-20T13:56:38;2;2;
47741;PMS5003;33504;52.066;6.096;2023-07-20T13:59:06;5;5;
47741;PMS5003;33504;52.066;6.096;2023-07-20T14:01:33;2;2;
47741;PMS5003;33504;52.066;6.096;2023-07-20T14:04:00;4;4;
47741;PMS5003;33504;52.066;6.096;2023-07-20T14:06:29;4;4;
47741;PMS5003;33504;52.066;6.096;2023-07-20T14:08:58;3;3;
47741;PMS5003;33504;52.066;6.096;2023-07-20T14:11:25;2;2;
47741;PMS5003;33504;52.066;6.096;2023-07-20T14:13:52;2;2;
47741;PMS5003;33504;52.066;6.096;2023-07-20T14:16:20;2;2;
47741;PMS5003;33504;52.066;6.096;2023-07-20T14:18:47;2;2;
47741;PMS5003;33504;52.066;6.096;2023-07-20T14:21:14;2;2;
47741;PMS5003;33504;52.066;6.096;2023-07-20T14:23:45;2;2;
47741;PMS5003;33504;52.066;6.096;2023-07-20T14:26:13;2;2;
47741;PMS5003;33504;52.066;6.096;2023-07-20T14:28:40;2;2;
47741;PMS5003;33504;52.066;6.096;2023-07-20T14:31:07;2;2;
47741;PMS5003;33504;52.066;6.096;2023-07-20T14:33:35;2;2;
47741;PMS5003;33504;52.066;6.096;2023-07-20T14:36:02;3;3;
47741;PMS5003;33504;52.066;6.096;2023-07-20T14:38:30;1;1;
47741;PMS5003;33504;52.066;6.096;2023-07-20T14:40:58;2;2;
47741;PMS5003;33504;52.066;6.096;2023-07-20T14:43:25;3;3;
47741;PMS5003;33504;52.066;6.096;2023-07-20T14:45:52;3;3;
47741;PMS5003;33504;52.066;6.096;2023-07-20T14:48:20;2;2;
47741;PMS5003;33504;52.066;6.096;2023-07-20T14:50:47;2;2;
47741;PMS5003;33504;52.066;6.096;2023-07-20T14:53:15;1;1;
47741;PMS5003;33504;52.066;6.096;2023-07-20T14:55:42;1;1;
47741;PMS5003;33504;52.066;6.096;2023-07-20T14:58:09;1;1;
47741;PMS5003;33504;52.066;6.096;2023-07-20T15:00:37;3;3;
47741;PMS5003;33504;52.066;6.096;2023-07-20T15:03:04;3;3;
47741;PMS5003;33504;52.066;6.096;2023-07-20T15:05:31;3;3;
47741;PMS5003;33504;52.066;6.096;2023-07-20T15:07:59;3;3;
47741;PMS5003;33504;52.066;6.096;2023-07-20T15:10:26;2;2;
47741;PMS5003;33504;52.066;6.096;2023-07-20T15:12:53;1;1;
47741;PMS5003;33504;52.066;6.096;2023-07-20T15:15:21;2;2;
47741;PMS5003;33504;52.066;6.096;2023-07-20T15:17:48;1;1;
47741;PMS5003;33504;52.066;6.096;2023-07-20T15:20:15;2;1;
47741;PMS5003;33504;52.066;6.096;2023-07-20T15:22:43;1;1;
47741;PMS5003;33504;52.066;6.096;2023-07-20T15:25:10;1;1;
47741;PMS5003;33504;52.066;6.096;2023-07-20T15:27:38;5;5;
47741;PMS5003;33504;52.066;6.096;2023-07-20T15:30:06;5;4;
47741;PMS5003;33504;52.066;6.096;2023-07-20T15:32:34;4;4;
47741;PMS5003;33504;52.066;6.096;2023-07-20T15:35:01;2;2;
47741;PMS5003;33504;52.066;6.096;2023-07-20T15:37:29;3;3;
47741;PMS5003;33504;52.066;6.096;2023-07-20T15:39:56;3;3;
47741;PMS5003;33504;52.066;6.096;2023-07-20T15:42:23;2;1;
47741;PMS5003;33504;52.066;6.096;2023-07-20T15:44:51;3;3;
47741;PMS5003;33504;52.066;6.096;2023-07-20T15:47:18;2;2;
47741;PMS5003;33504;52.066;6.096;2023-07-20T15:49:45;3;3;
47741;PMS5003;33504;52.066;6.096;2023-07-20T15:52:13;2;2;
47741;PMS5003;33504;52.066;6.096;2023-07-20T15:54:40;3;3;
47741;PMS5003;33504;52.066;6.096;2023-07-20T15:57:07;3;3;
47741;PMS5003;33504;52.066;6.096;2023-07-20T15:59:35;2;2;
47741;PMS5003;33504;52.066;6.096;2023-07-20T16:02:04;3;2;
47741;PMS5003;33504;52.066;6.096;2023-07-20T16:04:32;3;3;
47741;PMS5003;33504;52.066;6.096;2023-07-20T16:06:59;2;2;
47741;PMS5003;33504;52.066;6.096;2023-07-20T16:09:27;3;3;
47741;PMS5003;33504;52.066;6.096;2023-07-20T16:11:54;4;4;
47741;PMS5003;33504;52.066;6.096;2023-07-20T16:14:22;3;3;
47741;PMS5003;33504;52.066;6.096;2023-07-20T16:16:49;3;3;
47741;PMS5003;33504;52.066;6.096;2023-07-20T16:19:16;3;3;
47741;PMS5003;33504;52.066;6.096;2023-07-20T16:21:44;3;3;
47741;PMS5003;33504;52.066;6.096;2023-07-20T16:24:11;2;2;
47741;PMS5003;33504;52.066;6.096;2023-07-20T16:26:38;1;1;
47741;PMS5003;33504;52.066;6.096;2023-07-20T16:29:06;2;1;
47741;PMS5003;33504;52.066;6.096;2023-07-20T16:31:33;1;1;
47741;PMS5003;33504;52.066;6.096;2023-07-20T16:34:01;2;2;
47741;PMS5003;33504;52.066;6.096;2023-07-20T16:36:28;3;3;
47741;PMS5003;33504;52.066;6.096;2023-07-20T16:38:55;2;2;
47741;PMS5003;33504;52.066;6.096;2023-07-20T16:41:23;2;2;
47741;PMS5003;33504;52.066;6.096;2023-07-20T16:43:50;2;2;
47741;PMS5003;33504;52.066;6.096;2023-07-20T16:46:17;3;3;
47741;PMS5003;33504;52.066;6.096;2023-07-20T16:48:45;3;3;
47741;PMS5003;33504;52.066;6.096;2023-07-20T16:51:12;3;3;
47741;PMS5003;33504;52.066;6.096;2023-07-20T16:53:40;3;2;
47741;PMS5003;33504;52.066;6.096;2023-07-20T16:56:07;3;2;